sensor_id;sensor_type;location;lat;lon;timestamp;pressure;altitude;pressure_sealevel;temperature;humidity
43745;BME280;29359;53.048;8.732;2023-03-23T00:01:32;100365.66;;;10.45;100.00
43745;BME280;29359;53.048;8.732;2023-03-23T00:03:37;100363.81;;;10.47;100.00
43745;BME280;29359;53.048;8.732;2023-03-23T00:05:38;100341.91;;;10.45;100.00
43745;BME280;29359;53.048;8.732;2023-03-23T00:07:41;100326.13;;;10.44;100.00
43745;BME280;29359;53.048;8.732;2023-03-23T00:09:45;100338.47;;;10.43;100.00
43745;BME280;29359;53.048;8.732;2023-03-23T00:11:47;100358.72;;;10.43;100.00
43745;BME280;29359;53.048;8.732;2023-03-23T00:13:49;100342.88;;;10.43;100.00
43745;BME280;29359;53.048;8.732;2023-03-23T00:15:53;100371.03;;;10.42;100.00
43745;BME280;29359;53.048;8.732;2023-03-23T00:17:54;100367.53;;;10.42;100.00
43745;BME280;29359;53.048;8.732;2023-03-23T00:20:02;100355.25;;;10.41;100.00
43745;BME280;29359;53.048;8.732;2023-03-23T00:22:05;100347.28;;;10.42;100.00
43745;BME280;29359;53.048;8.732;2023-03-23T00:24:17;100349.88;;;10.44;100.00
43745;BME280;29359;53.048;8.732;2023-03-23T00:26:17;100342.81;;;10.44;100.00
43745;BME280;29359;53.048;8.732;2023-03-23T00:28:19;100339.38;;;10.42;100.00
43745;BME280;29359;53.048;8.732;2023-03-23T00:30:26;100340.25;;;10.43;100.00
43745;BME280;29359;53.048;8.732;2023-03-23T00:32:26;100334.97;;;10.43;100.00
43745;BME280;29359;53.048;8.732;2023-03-23T00:34:30;100336.69;;;10.44;100.00
43745;BME280;29359;53.048;8.732;2023-03-23T00:36:34;100324.41;;;10.43;100.00
43745;BME280;29359;53.048;8.732;2023-03-23T00:38:36;100325.22;;;10.45;100.00
43745;BME280;29359;53.048;8.732;2023-03-23T00:40:38;100320.84;;;10.44;100.00
43745;BME280;29359;53.048;8.732;2023-03-23T00:42:39;100325.97;;;10.48;100.00
43745;BME280;29359;53.048;8.732;2023-03-23T00:44:39;100319.81;;;10.48;100.00
43745;BME280;29359;53.048;8.732;2023-03-23T00:46:45;100312.72;;;10.50;100.00
43745;BME280;29359;53.048;8.732;2023-03-23T00:48:46;100312.66;;;10.51;100.00
43745;BME280;29359;53.048;8.732;2023-03-23T00:50:47;100319.75;;;10.49;100.00
43745;BME280;29359;53.048;8.732;2023-03-23T00:52:49;100318.91;;;10.49;100.00
43745;BME280;29359;53.048;8.732;2023-03-23T00:54:52;100306.47;;;10.52;100.00
43745;BME280;29359;53.048;8.732;2023-03-23T00:56:53;100305.53;;;10.53;100.00
43745;BME280;29359;53.048;8.732;2023-03-23T00:58:54;100301.19;;;10.52;100.00
43745;BME280;29359;53.048;8.732;2023-03-23T01:00:55;100298.44;;;10.55;100.00
43745;BME280;29359;53.048;8.732;2023-03-23T01:02:56;100297.63;;;10.53;100.00
43745;BME280;29359;53.048;8.732;2023-03-23T01:05:03;100302.78;;;10.56;100.00
43745;BME280;29359;53.048;8.732;2023-03-23T01:07:04;100292.22;;;10.56;100.00
43745;BME280;29359;53.048;8.732;2023-03-23T01:09:10;100289.53;;;10.58;100.00
43745;BME280;29359;53.048;8.732;2023-03-23T01:11:15;100287.81;;;10.57;100.00
43745;BME280;29359;53.048;8.732;2023-03-23T01:13:16;100291.31;;;10.57;100.00
43745;BME280;29359;53.048;8.732;2023-03-23T01:15:18;100282.53;;;10.57;100.00
43745;BME280;29359;53.048;8.732;2023-03-23T01:17:18;100286.09;;;10.56;100.00
43745;BME280;29359;53.048;8.732;2023-03-23T01:19:19;100286.94;;;10.56;100.00
43745;BME280;29359;53.048;8.732;2023-03-23T01:21:21;100282.53;;;10.57;100.00
43745;BME280;29359;53.048;8.732;2023-03-23T01:23:22;100286.09;;;10.56;100.00
43745;BME280;29359;53.048;8.732;2023-03-23T01:25:22;100290.44;;;10.57;100.00
43745;BME280;29359;53.048;8.732;2023-03-23T01:27:22;100291.25;;;10.59;100.00
43745;BME280;29359;53.048;8.732;2023-03-23T01:29:24;100293.94;;;10.57;100.00
43745;BME280;29359;53.048;8.732;2023-03-23T01:31:25;100295.72;;;10.57;100.00
43745;BME280;29359;53.048;8.732;2023-03-23T01:33:26;100286.88;;;10.58;100.00
43745;BME280;29359;53.048;8.732;2023-03-23T01:35:26;100280.81;;;10.56;100.00
43745;BME280;29359;53.048;8.732;2023-03-23T01:37:27;100277.31;;;10.55;100.00
43745;BME280;29359;53.048;8.732;2023-03-23T01:39:27;100266.75;;;10.55;100.00
43745;BME280;29359;53.048;8.732;2023-03-23T01:41:28;100265.94;;;10.53;100.00
43745;BME280;29359;53.048;8.732;2023-03-23T01:43:28;100272.09;;;10.54;100.00
43745;BME280;29359;53.048;8.732;2023-03-23T01:45:32;100265.09;;;10.53;100.00
43745;BME280;29359;53.048;8.732;2023-03-23T01:47:35;100274.72;;;10.54;100.00
43745;BME280;29359;53.048;8.732;2023-03-23T01:49:40;100265.09;;;10.53;100.00
43745;BME280;29359;53.048;8.732;2023-03-23T01:51:49;100265.94;;;10.53;100.00
43745;BME280;29359;53.048;8.732;2023-03-23T01:53:55;100265.94;;;10.53;100.00
43745;BME280;29359;53.048;8.732;2023-03-23T01:55:57;100261.53;;;10.54;100.00
43745;BME280;29359;53.048;8.732;2023-03-23T01:58:00;100268.53;;;10.55;100.00
43745;BME280;29359;53.048;8.732;2023-03-23T02:00:07;100266.75;;;10.55;100.00
43745;BME280;29359;53.048;8.732;2023-03-23T02:02:12;100270.25;;;10.56;100.00
43745;BME280;29359;53.048;8.732;2023-03-23T02:04:14;100257.91;;;10.56;100.00
43745;BME280;29359;53.048;8.732;2023-03-23T02:06:17;100263.13;;;10.58;100.00
43745;BME280;29359;53.048;8.732;2023-03-23T02:08:21;100256.88;;;10.60;100.00
43745;BME280;29359;53.048;8.732;2023-03-23T02:10:23;100258.66;;;10.60;100.00
43745;BME280;29359;53.048;8.732;2023-03-23T02:12:24;100248.97;;;10.60;100.00
43745;BME280;29359;53.048;8.732;2023-03-23T02:14:26;100240.19;;;10.60;100.00
43745;BME280;29359;53.048;8.732;2023-03-23T02:18:35;100230.44;;;10.62;100.00
43745;BME280;29359;53.048;8.732;2023-03-23T02:21:06;100222.56;;;10.60;100.00
43745;BME280;29359;53.048;8.732;2023-03-23T02:25:58;100217.34;;;10.59;100.00
43745;BME280;29359;53.048;8.732;2023-03-23T02:31:09;100201.50;;;10.59;100.00
43745;BME280;29359;53.048;8.732;2023-03-23T02:35:37;100211.31;;;10.55;100.00
43745;BME280;29359;53.048;8.732;2023-03-23T02:38:12;100211.31;;;10.55;100.00
43745;BME280;29359;53.048;8.732;2023-03-23T02:40:21;100220.97;;;10.56;100.00
43745;BME280;29359;53.048;8.732;2023-03-23T02:42:26;100220.91;;;10.58;100.00
43745;BME280;29359;53.048;8.732;2023-03-23T02:44:29;100227.91;;;10.59;100.00
43745;BME280;29359;53.048;8.732;2023-03-23T02:46:32;100207.66;;;10.59;100.00
43745;BME280;29359;53.048;8.732;2023-03-23T02:48:33;100199.72;;;10.59;100.00
43745;BME280;29359;53.048;8.732;2023-03-23T02:50:37;100178.63;;;10.59;100.00
43745;BME280;29359;53.048;8.732;2023-03-23T02:52:41;100172.47;;;10.59;100.00
43745;BME280;29359;53.048;8.732;2023-03-23T02:54:45;100184.81;;;10.58;100.00
43745;BME280;29359;53.048;8.732;2023-03-23T02:56:47;100161.00;;;10.60;100.00
43745;BME280;29359;53.048;8.732;2023-03-23T02:58:49;100153.81;;;10.63;100.00
43745;BME280;29359;53.048;8.732;2023-03-23T03:00:50;100173.94;;;10.66;100.00
43745;BME280;29359;53.048;8.732;2023-03-23T03:02:53;100173.94;;;10.66;100.00
43745;BME280;29359;53.048;8.732;2023-03-23T03:05:01;100174.75;;;10.68;100.00
43745;BME280;29359;53.048;8.732;2023-03-23T03:07:17;100164.25;;;10.66;100.00
43745;BME280;29359;53.048;8.732;2023-03-23T03:09:40;100152.78;;;10.67;100.00
43745;BME280;29359;53.048;8.732;2023-03-23T03:11:50;100149.22;;;10.68;100.00
43745;BME280;29359;53.048;8.732;2023-03-23T03:18:24;100136.06;;;10.67;100.00
43745;BME280;29359;53.048;8.732;2023-03-23T03:20:27;100143.00;;;10.69;100.00
43745;BME280;29359;53.048;8.732;2023-03-23T03:22:29;100135.88;;;10.72;100.00
43745;BME280;29359;53.048;8.732;2023-03-23T03:24:31;100128.81;;;10.72;100.00
43745;BME280;29359;53.048;8.732;2023-03-23T03:26:34;100140.25;;;10.73;100.00
43745;BME280;29359;53.048;8.732;2023-03-23T03:28:35;100139.31;;;10.74;100.00
43745;BME280;29359;53.048;8.732;2023-03-23T03:30:37;100142.88;;;10.73;100.00
43745;BME280;29359;53.048;8.732;2023-03-23T03:32:42;100144.59;;;10.74;100.00
43745;BME280;29359;53.048;8.732;2023-03-23T03:34:47;100128.81;;;10.72;100.00
43745;BME280;29359;53.048;8.732;2023-03-23T03:36:48;100128.75;;;10.74;100.00
43745;BME280;29359;53.048;8.732;2023-03-23T03:38:53;100143.56;;;10.78;100.00
43745;BME280;29359;53.048;8.732;2023-03-23T03:40:55;100139.25;;;10.75;100.00
43745;BME280;29359;53.048;8.732;2023-03-23T03:42:55;100133.97;;;10.75;100.00
43745;BME280;29359;53.048;8.732;2023-03-23T03:44:56;100141.03;;;10.75;100.00
43745;BME280;29359;53.048;8.732;2023-03-23T03:46:57;100145.47;;;10.74;100.00
43745;BME280;29359;53.048;8.732;2023-03-23T03:48:58;100144.66;;;10.72;100.00
43745;BME280;29359;53.048;8.732;2023-03-23T03:50:59;100151.66;;;10.73;100.00
43745;BME280;29359;53.048;8.732;2023-03-23T03:53:00;100147.31;;;10.72;100.00
43745;BME280;29359;53.048;8.732;2023-03-23T03:55:01;100151.66;;;10.73;100.00
43745;BME280;29359;53.048;8.732;2023-03-23T03:57:01;100145.47;;;10.74;100.00
43745;BME280;29359;53.048;8.732;2023-03-23T03:59:05;100147.25;;;10.74;100.00
43745;BME280;29359;53.048;8.732;2023-03-23T04:01:05;100144.66;;;10.72;100.00
43745;BME280;29359;53.048;8.732;2023-03-23T04:03:05;100153.50;;;10.71;100.00
43745;BME280;29359;53.048;8.732;2023-03-23T04:05:09;100146.44;;;10.72;100.00
43745;BME280;29359;53.048;8.732;2023-03-23T04:07:10;100151.78;;;10.70;100.00
43745;BME280;29359;53.048;8.732;2023-03-23T04:09:14;100142.16;;;10.69;100.00
43745;BME280;29359;53.048;8.732;2023-03-23T04:11:15;100143.88;;;10.70;100.00
43745;BME280;29359;53.048;8.732;2023-03-23T04:13:16;100145.59;;;10.71;100.00
43745;BME280;29359;53.048;8.732;2023-03-23T04:15:16;100142.03;;;10.72;100.00
43745;BME280;29359;53.048;8.732;2023-03-23T04:17:17;100144.66;;;10.72;100.00
43745;BME280;29359;53.048;8.732;2023-03-23T04:19:18;100135.75;;;10.75;100.00
43745;BME280;29359;53.048;8.732;2023-03-23T04:21:19;100136.69;;;10.74;100.00
43745;BME280;29359;53.048;8.732;2023-03-23T04:23:20;100138.47;;;10.73;100.00
43745;BME280;29359;53.048;8.732;2023-03-23T04:25:22;100149.69;;;10.78;100.00
43745;BME280;29359;53.048;8.732;2023-03-23T04:27:25;100135.50;;;10.81;100.00
43745;BME280;29359;53.048;8.732;2023-03-23T04:29:28;100140.75;;;10.82;100.00
43745;BME280;29359;53.048;8.732;2023-03-23T04:31:28;100142.56;;;10.80;100.00
43745;BME280;29359;53.048;8.732;2023-03-23T04:33:29;100148.78;;;10.79;100.00
43745;BME280;29359;53.048;8.732;2023-03-23T04:35:31;100153.13;;;10.80;100.00
43745;BME280;29359;53.048;8.732;2023-03-23T04:37:31;100145.22;;;10.80;100.00
43745;BME280;29359;53.048;8.732;2023-03-23T04:39:32;100143.31;;;10.84;100.00
43745;BME280;29359;53.048;8.732;2023-03-23T04:41:33;100143.31;;;10.84;100.00
43745;BME280;29359;53.048;8.732;2023-03-23T04:43:36;100138.03;;;10.84;100.00
43745;BME280;29359;53.048;8.732;2023-03-23T04:45:42;100140.66;;;10.84;100.00
43745;BME280;29359;53.048;8.732;2023-03-23T04:47:48;100136.28;;;10.84;100.00
43745;BME280;29359;53.048;8.732;2023-03-23T04:49:53;100123.09;;;10.84;100.00
43745;BME280;29359;53.048;8.732;2023-03-23T04:51:53;100123.19;;;10.81;100.00
43745;BME280;29359;53.048;8.732;2023-03-23T04:53:54;100130.19;;;10.82;100.00
43745;BME280;29359;53.048;8.732;2023-03-23T04:55:54;100131.03;;;10.83;100.00
43745;BME280;29359;53.048;8.732;2023-03-23T04:57:55;100129.16;;;10.86;100.00
43745;BME280;29359;53.048;8.732;2023-03-23T04:59:56;100122.03;;;10.88;100.00
43745;BME280;29359;53.048;8.732;2023-03-23T05:01:58;100135.13;;;10.91;100.00
43745;BME280;29359;53.048;8.732;2023-03-23T05:03:59;100134.19;;;10.92;100.00
43745;BME280;29359;53.048;8.732;2023-03-23T05:06:02;100128.84;;;10.94;100.00
43745;BME280;29359;53.048;8.732;2023-03-23T05:08:03;100123.69;;;10.91;100.00
43745;BME280;29359;53.048;8.732;2023-03-23T05:10:05;100124.47;;;10.93;100.00
43745;BME280;29359;53.048;8.732;2023-03-23T05:12:07;100116.44;;;10.96;100.00
43745;BME280;29359;53.048;8.732;2023-03-23T05:14:08;100129.56;;;10.97;99.93
43745;BME280;29359;53.048;8.732;2023-03-23T05:16:08;100119.00;;;10.97;100.00
43745;BME280;29359;53.048;8.732;2023-03-23T05:18:10;100109.25;;;10.99;100.00
43745;BME280;29359;53.048;8.732;2023-03-23T05:20:13;100131.16;;;11.01;99.95
43745;BME280;29359;53.048;8.732;2023-03-23T05:22:14;100133.69;;;11.05;99.52
43745;BME280;29359;53.048;8.732;2023-03-23T05:24:15;100127.34;;;11.09;99.06
43745;BME280;29359;53.048;8.732;2023-03-23T05:26:15;100123.66;;;11.13;98.83
43745;BME280;29359;53.048;8.732;2023-03-23T05:28:16;100124.38;;;11.16;98.71
43745;BME280;29359;53.048;8.732;2023-03-23T05:30:16;100109.53;;;11.14;98.85
43745;BME280;29359;53.048;8.732;2023-03-23T05:32:17;100110.56;;;11.10;99.06
43745;BME280;29359;53.048;8.732;2023-03-23T05:34:19;100100.94;;;11.09;99.22
43745;BME280;29359;53.048;8.732;2023-03-23T05:36:19;100108.06;;;11.07;99.21
43745;BME280;29359;53.048;8.732;2023-03-23T05:38:20;100101.13;;;11.04;99.53
43745;BME280;29359;53.048;8.732;2023-03-23T05:40:23;100103.75;;;11.04;99.51
43745;BME280;29359;53.048;8.732;2023-03-23T05:42:25;100095.03;;;11.02;99.65
43745;BME280;29359;53.048;8.732;2023-03-23T05:44:26;100096.81;;;11.01;99.45
43745;BME280;29359;53.048;8.732;2023-03-23T05:46:26;100102.06;;;11.03;99.49
43745;BME280;29359;53.048;8.732;2023-03-23T05:48:27;100108.06;;;11.07;99.51
43745;BME280;29359;53.048;8.732;2023-03-23T05:50:29;100106.28;;;11.07;99.13
43745;BME280;29359;53.048;8.732;2023-03-23T05:52:29;100110.75;;;11.05;99.00
43745;BME280;29359;53.048;8.732;2023-03-23T05:54:32;100109.13;;;11.02;98.86
43745;BME280;29359;53.048;8.732;2023-03-23T05:56:34;100119.75;;;11.01;98.53
43745;BME280;29359;53.048;8.732;2023-03-23T05:58:35;100116.31;;;10.99;98.63
43745;BME280;29359;53.048;8.732;2023-03-23T06:00:35;100113.53;;;11.02;98.27
43745;BME280;29359;53.048;8.732;2023-03-23T06:02:36;100122.31;;;11.02;98.07
43745;BME280;29359;53.048;8.732;2023-03-23T06:04:36;100127.59;;;11.02;97.96
43745;BME280;29359;53.048;8.732;2023-03-23T06:06:38;100118.88;;;11.00;98.13
43745;BME280;29359;53.048;8.732;2023-03-23T06:08:39;100118.88;;;11.00;97.77
43745;BME280;29359;53.048;8.732;2023-03-23T06:10:40;100115.25;;;11.03;97.83
43745;BME280;29359;53.048;8.732;2023-03-23T06:12:40;100111.69;;;11.04;97.51
43745;BME280;29359;53.048;8.732;2023-03-23T06:14:41;100109.78;;;11.08;97.66
43745;BME280;29359;53.048;8.732;2023-03-23T06:16:42;100128.06;;;11.12;97.32
43745;BME280;29359;53.048;8.732;2023-03-23T06:18:42;100128.94;;;11.13;96.64
43745;BME280;29359;53.048;8.732;2023-03-23T06:20:43;100133.16;;;11.17;96.68
43745;BME280;29359;53.048;8.732;2023-03-23T06:22:45;100126.91;;;11.19;96.33
43745;BME280;29359;53.048;8.732;2023-03-23T06:24:46;100132.97;;;11.21;95.77
43745;BME280;29359;53.048;8.732;2023-03-23T06:26:47;100128.53;;;11.22;96.07
43745;BME280;29359;53.048;8.732;2023-03-23T06:28:48;100126.69;;;11.24;95.97
43745;BME280;29359;53.048;8.732;2023-03-23T06:30:49;100131.06;;;11.25;95.68
43745;BME280;29359;53.048;8.732;2023-03-23T06:32:50;100138.91;;;11.26;95.57
43745;BME280;29359;53.048;8.732;2023-03-23T06:34:50;100150.31;;;11.28;95.73
43745;BME280;29359;53.048;8.732;2023-03-23T06:36:51;100150.19;;;11.31;95.68
43745;BME280;29359;53.048;8.732;2023-03-23T06:38:51;100142.00;;;11.38;95.27
43745;BME280;29359;53.048;8.732;2023-03-23T06:40:53;100150.59;;;11.43;94.98
43745;BME280;29359;53.048;8.732;2023-03-23T06:42:54;100143.38;;;11.46;94.81
43745;BME280;29359;53.048;8.732;2023-03-23T06:44:54;100152.09;;;11.48;94.84
43745;BME280;29359;53.048;8.732;2023-03-23T06:46:57;100152.91;;;11.50;94.96
43745;BME280;29359;53.048;8.732;2023-03-23T06:48:57;100166.84;;;11.54;95.10
43745;BME280;29359;53.048;8.732;2023-03-23T06:51:01;100150.78;;;11.58;94.78
43745;BME280;29359;53.048;8.732;2023-03-23T06:53:02;100156.78;;;11.62;94.75
43745;BME280;29359;53.048;8.732;2023-03-23T06:55:03;100156.84;;;11.60;94.80
43745;BME280;29359;53.048;8.732;2023-03-23T06:57:04;100154.22;;;11.60;94.97
43745;BME280;29359;53.048;8.732;2023-03-23T06:59:05;100156.06;;;11.58;95.21
43745;BME280;29359;53.048;8.732;2023-03-23T07:01:05;100162.22;;;11.59;95.63
43745;BME280;29359;53.048;8.732;2023-03-23T07:03:08;100151.56;;;11.60;95.92
43745;BME280;29359;53.048;8.732;2023-03-23T07:05:09;100161.09;;;11.64;96.33
43745;BME280;29359;53.048;8.732;2023-03-23T07:07:11;100167.84;;;11.72;96.05
43745;BME280;29359;53.048;8.732;2023-03-23T07:09:14;100171.16;;;11.77;96.16
43745;BME280;29359;53.048;8.732;2023-03-23T07:11:15;100169.34;;;11.79;96.13
43745;BME280;29359;53.048;8.732;2023-03-23T07:13:16;100176.34;;;11.80;96.55
43745;BME280;29359;53.048;8.732;2023-03-23T07:15:17;100177.31;;;11.77;96.98
43745;BME280;29359;53.048;8.732;2023-03-23T07:17:17;100181.00;;;11.73;97.45
43745;BME280;29359;53.048;8.732;2023-03-23T07:19:18;100176.03;;;11.65;98.27
43745;BME280;29359;53.048;8.732;2023-03-23T07:21:18;100178.16;;;11.57;99.16
43745;BME280;29359;53.048;8.732;2023-03-23T07:23:19;100179.41;;;11.49;100.00
43745;BME280;29359;53.048;8.732;2023-03-23T07:25:20;100190.34;;;11.40;100.00
43745;BME280;29359;53.048;8.732;2023-03-23T07:27:21;100192.34;;;11.35;100.00
43745;BME280;29359;53.048;8.732;2023-03-23T07:29:21;100210.09;;;11.31;100.00
43745;BME280;29359;53.048;8.732;2023-03-23T07:31:22;100231.25;;;11.31;100.00
43745;BME280;29359;53.048;8.732;2023-03-23T07:33:23;100235.09;;;11.22;100.00
43745;BME280;29359;53.048;8.732;2023-03-23T07:35:24;100224.72;;;11.18;100.00
43745;BME280;29359;53.048;8.732;2023-03-23T07:37:25;100221.59;;;11.08;100.00
43745;BME280;29359;53.048;8.732;2023-03-23T07:39:26;100223.44;;;11.06;100.00
43745;BME280;29359;53.048;8.732;2023-03-23T07:41:27;100245.53;;;11.04;100.00
43745;BME280;29359;53.048;8.732;2023-03-23T07:43:28;100232.56;;;10.97;100.00
43745;BME280;29359;53.048;8.732;2023-03-23T07:45:30;100226.69;;;10.91;100.00
43745;BME280;29359;53.048;8.732;2023-03-23T07:47:31;100224.97;;;10.90;100.00
43745;BME280;29359;53.048;8.732;2023-03-23T07:49:31;100225.16;;;10.84;100.00
43745;BME280;29359;53.048;8.732;2023-03-23T07:51:32;100230.63;;;10.79;100.00
43745;BME280;29359;53.048;8.732;2023-03-23T07:53:33;100231.66;;;10.75;100.00
43745;BME280;29359;53.048;8.732;2023-03-23T07:55:34;100238.72;;;10.75;100.00
43745;BME280;29359;53.048;8.732;2023-03-23T07:57:34;100247.47;;;10.77;100.00
43745;BME280;29359;53.048;8.732;2023-03-23T07:59:35;100251.75;;;10.79;100.00
43745;BME280;29359;53.048;8.732;2023-03-23T08:01:37;100255.31;;;10.78;100.00
43745;BME280;29359;53.048;8.732;2023-03-23T08:03:38;100246.59;;;10.76;100.00
43745;BME280;29359;53.048;8.732;2023-03-23T08:05:38;100259.06;;;10.73;100.00
43745;BME280;29359;53.048;8.732;2023-03-23T08:07:39;100257.38;;;10.70;100.00
43745;BME280;29359;53.048;8.732;2023-03-23T08:09:43;100268.06;;;10.67;100.00
43745;BME280;29359;53.048;8.732;2023-03-23T08:11:44;100270.88;;;10.62;100.00
43745;BME280;29359;53.048;8.732;2023-03-23T08:13:45;100258.72;;;10.58;100.00
43745;BME280;29359;53.048;8.732;2023-03-23T08:15:47;100275.59;;;10.54;100.00
43745;BME280;29359;53.048;8.732;2023-03-23T08:17:49;100280.94;;;10.53;100.00
43745;BME280;29359;53.048;8.732;2023-03-23T08:19:50;100283.63;;;10.51;100.00
43745;BME280;29359;53.048;8.732;2023-03-23T08:21:53;100281.03;;;10.50;100.00
43745;BME280;29359;53.048;8.732;2023-03-23T08:23:55;100265.31;;;10.47;100.00
43745;BME280;29359;53.048;8.732;2023-03-23T08:25:57;100279.38;;;10.47;100.00
43745;BME280;29359;53.048;8.732;2023-03-23T08:27:59;100283.91;;;10.44;100.00
43745;BME280;29359;53.048;8.732;2023-03-23T08:30:03;100286.66;;;10.41;100.00
43745;BME280;29359;53.048;8.732;2023-03-23T08:32:07;100282.25;;;10.39;100.00
43745;BME280;29359;53.048;8.732;2023-03-23T08:34:07;100280.53;;;10.38;100.00
43745;BME280;29359;53.048;8.732;2023-03-23T08:36:09;100286.69;;;10.39;100.00
43745;BME280;29359;53.048;8.732;2023-03-23T08:38:10;100283.13;;;10.40;100.00
43745;BME280;29359;53.048;8.732;2023-03-23T08:40:13;100279.53;;;10.43;100.00
43745;BME280;29359;53.048;8.732;2023-03-23T08:42:14;100281.25;;;10.44;100.00
43745;BME280;29359;53.048;8.732;2023-03-23T08:44:17;100279.25;;;10.50;100.00
43745;BME280;29359;53.048;8.732;2023-03-23T08:46:18;100287.88;;;10.55;100.00
43745;BME280;29359;53.048;8.732;2023-03-23T08:48:20;100285.84;;;10.62;100.00
43745;BME280;29359;53.048;8.732;2023-03-23T08:50:24;100272.44;;;10.68;100.00
43745;BME280;29359;53.048;8.732;2023-03-23T08:52:25;100279.38;;;10.70;100.00
43745;BME280;29359;53.048;8.732;2023-03-23T08:54:25;100286.31;;;10.73;100.00
43745;BME280;29359;53.048;8.732;2023-03-23T08:56:26;100281.09;;;10.72;100.00
43745;BME280;29359;53.048;8.732;2023-03-23T08:58:27;100279.38;;;10.70;100.00
43745;BME280;29359;53.048;8.732;2023-03-23T09:00:28;100272.38;;;10.69;100.00
43745;BME280;29359;53.048;8.732;2023-03-23T09:02:29;100274.94;;;10.71;100.00
43745;BME280;29359;53.048;8.732;2023-03-23T09:04:32;100283.56;;;10.76;100.00
43745;BME280;29359;53.048;8.732;2023-03-23T09:06:35;100287.00;;;10.78;100.00
43745;BME280;29359;53.048;8.732;2023-03-23T09:08:36;100293.13;;;10.79;100.00
43745;BME280;29359;53.048;8.732;2023-03-23T09:10:37;100295.84;;;10.77;100.00
43745;BME280;29359;53.048;8.732;2023-03-23T09:12:40;100296.75;;;10.76;100.00
43745;BME280;29359;53.048;8.732;2023-03-23T09:14:41;100286.25;;;10.75;100.00
43745;BME280;29359;53.048;8.732;2023-03-23T09:16:42;100284.53;;;10.74;100.00
43745;BME280;29359;53.048;8.732;2023-03-23T09:18:42;100294.13;;;10.76;100.00
43745;BME280;29359;53.048;8.732;2023-03-23T09:20:44;100303.69;;;10.79;100.00
43745;BME280;29359;53.048;8.732;2023-03-23T09:22:46;100304.44;;;10.82;100.00
43745;BME280;29359;53.048;8.732;2023-03-23T09:24:47;100309.66;;;10.84;100.00
43745;BME280;29359;53.048;8.732;2023-03-23T09:26:49;100303.53;;;10.83;100.00
43745;BME280;29359;53.048;8.732;2023-03-23T09:28:49;100306.22;;;10.82;100.00
43745;BME280;29359;53.048;8.732;2023-03-23T09:30:54;100308.00;;;10.81;100.00
43745;BME280;29359;53.048;8.732;2023-03-23T09:32:59;100304.44;;;10.82;100.00
43745;BME280;29359;53.048;8.732;2023-03-23T09:35:02;100291.16;;;10.85;100.00
43745;BME280;29359;53.048;8.732;2023-03-23T09:37:02;100294.50;;;10.90;100.00
43745;BME280;29359;53.048;8.732;2023-03-23T09:39:05;100300.50;;;10.94;100.00
43745;BME280;29359;53.048;8.732;2023-03-23T09:41:26;100309.84;;;11.02;100.00
43745;BME280;29359;53.048;8.732;2023-03-23T09:50:07;100318.22;;;11.14;100.00
43745;BME280;29359;53.048;8.732;2023-03-23T09:52:13;100318.78;;;11.22;100.00
43745;BME280;29359;53.048;8.732;2023-03-23T09:54:19;100318.38;;;11.32;100.00
43745;BME280;29359;53.048;8.732;2023-03-23T09:56:20;100323.69;;;11.54;100.00
43745;BME280;29359;53.048;8.732;2023-03-23T09:58:37;100318.81;;;11.65;99.03
43745;BME280;29359;53.048;8.732;2023-03-23T10:00:44;100315.00;;;11.73;97.44
43745;BME280;29359;53.048;8.732;2023-03-23T10:04:53;100328.75;;;11.82;96.08
43745;BME280;29359;53.048;8.732;2023-03-23T10:06:59;100335.69;;;11.85;95.23
43745;BME280;29359;53.048;8.732;2023-03-23T10:09:05;100350.50;;;11.89;94.78
43745;BME280;29359;53.048;8.732;2023-03-23T10:13:23;100358.66;;;12.05;94.47
43745;BME280;29359;53.048;8.732;2023-03-23T10:15:31;100363.41;;;12.18;94.58
43745;BME280;29359;53.048;8.732;2023-03-23T10:17:52;100363.16;;;12.24;93.69
43745;BME280;29359;53.048;8.732;2023-03-23T10:22:20;100358.25;;;12.36;93.07
43745;BME280;29359;53.048;8.732;2023-03-23T10:24:30;100366.25;;;12.34;92.73
43745;BME280;29359;53.048;8.732;2023-03-23T10:28:47;100370.09;;;12.27;92.13
43745;BME280;29359;53.048;8.732;2023-03-23T10:30:55;100366.78;;;12.22;92.19
43745;BME280;29359;53.048;8.732;2023-03-23T10:33:02;100371.81;;;12.28;92.71
43745;BME280;29359;53.048;8.732;2023-03-23T10:35:07;100359.84;;;12.40;92.92
43745;BME280;29359;53.048;8.732;2023-03-23T10:37:38;100354.66;;;12.57;93.29
43745;BME280;29359;53.048;8.732;2023-03-23T10:39:55;100358.66;;;12.67;92.38
43745;BME280;29359;53.048;8.732;2023-03-23T10:42:00;100355.22;;;12.65;91.05
43745;BME280;29359;53.048;8.732;2023-03-23T10:44:16;100367.78;;;12.60;90.31
43745;BME280;29359;53.048;8.732;2023-03-23T10:48:33;100354.28;;;12.46;90.54
43745;BME280;29359;53.048;8.732;2023-03-23T10:50:38;100357.91;;;12.43;89.68
43745;BME280;29359;53.048;8.732;2023-03-23T10:52:41;100347.25;;;12.45;89.19
43745;BME280;29359;53.048;8.732;2023-03-23T10:54:57;100347.06;;;12.49;88.49
43745;BME280;29359;53.048;8.732;2023-03-23T10:56:59;100352.16;;;12.54;88.31
43745;BME280;29359;53.048;8.732;2023-03-23T10:59:14;100363.50;;;12.57;88.08
43745;BME280;29359;53.048;8.732;2023-03-23T11:01:18;100368.97;;;12.53;87.48
43745;BME280;29359;53.048;8.732;2023-03-23T11:03:24;100365.53;;;12.51;87.62
43745;BME280;29359;53.048;8.732;2023-03-23T11:05:34;100364.53;;;12.53;87.50
43745;BME280;29359;53.048;8.732;2023-03-23T11:07:36;100359.16;;;12.55;88.23
43745;BME280;29359;53.048;8.732;2023-03-23T11:09:52;100351.97;;;12.58;87.97